createdAt,value
2019-02-24T00:00:58.172Z,-2.66
2019-02-24T00:02:29.450Z,-2.71
2019-02-24T00:04:01.574Z,-2.68
2019-02-24T00:05:32.935Z,-2.70
2019-02-24T00:07:04.227Z,-2.73
2019-02-24T00:08:36.104Z,-2.74
2019-02-24T00:10:07.917Z,-2.73
2019-02-24T00:11:39.273Z,-2.71
2019-02-24T00:13:11.170Z,-2.70
2019-02-24T00:14:42.490Z,-2.68
2019-02-24T00:16:14.913Z,-2.68
2019-02-24T00:17:46.836Z,-2.70
2019-02-24T00:19:19.191Z,-2.72
2019-02-24T00:20:51.077Z,-2.74
2019-02-24T00:22:22.352Z,-2.69
2019-02-24T00:23:53.659Z,-2.70
2019-02-24T00:25:25.497Z,-2.68
2019-02-24T00:26:56.822Z,-2.69
2019-02-24T00:28:28.728Z,-2.71
2019-02-24T00:30:00.002Z,-2.78
2019-02-24T00:31:32.355Z,-2.79
2019-02-24T00:33:03.667Z,-2.74
2019-02-24T00:34:35.983Z,-2.71
2019-02-24T00:36:07.282Z,-2.73
2019-02-24T00:37:38.575Z,-2.79
2019-02-24T00:39:09.878Z,-2.76
2019-02-24T00:40:42.193Z,-2.72
2019-02-24T00:42:14.065Z,-2.72
2019-02-24T00:43:45.960Z,-2.73
2019-02-24T00:45:17.265Z,-2.78
2019-02-24T00:46:49.408Z,-2.80
2019-02-24T00:48:21.287Z,-2.79
2019-02-24T00:49:52.983Z,-2.77
2019-02-24T00:51:24.856Z,-2.79
2019-02-24T00:52:56.782Z,-2.80
2019-02-24T00:54:28.683Z,-2.80
2019-02-24T00:56:00.760Z,-2.80
2019-02-24T00:57:32.073Z,-2.80
2019-02-24T00:59:03.409Z,-2.82
2019-02-24T01:00:34.690Z,-2.81
2019-02-24T01:02:06.987Z,-2.82
2019-02-24T01:03:38.290Z,-2.76
2019-02-24T01:05:10.028Z,-2.74
2019-02-24T01:06:41.304Z,-2.70
2019-02-24T01:08:12.628Z,-2.74
2019-02-24T01:09:43.945Z,-2.86
2019-02-24T01:11:15.559Z,-3.01
2019-02-24T01:12:46.860Z,-3.10
2019-02-24T01:14:18.174Z,-3.06
2019-02-24T01:15:49.455Z,-3.03
2019-02-24T01:17:21.137Z,-3.00
2019-02-24T01:18:52.437Z,-2.95
2019-02-24T01:20:23.723Z,-2.90
2019-02-24T01:21:55.021Z,-2.88
2019-02-24T01:23:29.409Z,-2.90
2019-02-24T01:25:00.685Z,-2.83
2019-02-24T01:26:32.003Z,-2.83
2019-02-24T01:28:03.343Z,-2.84
2019-02-24T01:29:34.931Z,-2.88
2019-02-24T01:31:06.229Z,-2.90
2019-02-24T01:32:37.545Z,-2.90
2019-02-24T01:34:08.858Z,-2.90
2019-02-24T01:35:40.400Z,-2.92
2019-02-24T01:37:11.670Z,-2.92
2019-02-24T01:38:43.004Z,-2.92
2019-02-24T01:40:14.881Z,-2.93
2019-02-24T01:41:46.487Z,-2.94
2019-02-24T01:43:18.361Z,-3.01
2019-02-24T01:44:50.271Z,-3.05
2019-02-24T01:46:21.554Z,-3.15
2019-02-24T01:47:52.971Z,-3.23
2019-02-24T01:49:24.288Z,-3.28
2019-02-24T01:50:56.207Z,-3.38
2019-02-24T01:52:27.565Z,-3.39
2019-02-24T01:53:59.760Z,-3.44
2019-02-24T01:55:31.061Z,-3.43
2019-02-24T01:57:02.371Z,-3.40
2019-02-24T01:58:35.372Z,-3.36
2019-02-24T02:00:07.605Z,-3.32
2019-02-24T02:01:38.895Z,-3.30
2019-02-24T02:03:10.202Z,-3.29
2019-02-24T02:04:41.519Z,-3.30
2019-02-24T02:06:13.152Z,-3.29
2019-02-24T02:07:45.050Z,-3.28
2019-02-24T02:09:18.659Z,-3.26
2019-02-24T02:10:49.982Z,-3.36
2019-02-24T02:12:22.358Z,-3.42
2019-02-24T02:13:53.685Z,-3.43
2019-02-24T02:15:24.981Z,-3.43
2019-02-24T02:16:56.342Z,-3.42
2019-02-24T02:18:27.910Z,-3.38
2019-02-24T02:19:59.196Z,-3.34
2019-02-24T02:21:31.532Z,-3.31
2019-02-24T02:23:02.851Z,-3.25
2019-02-24T02:24:34.187Z,-3.19
2019-02-24T02:26:05.516Z,-3.20
2019-02-24T02:27:37.077Z,-3.23
2019-02-24T02:29:08.358Z,-3.21
2019-02-24T02:30:39.715Z,-3.20
2019-02-24T02:32:11.033Z,-3.22
2019-02-24T02:33:42.604Z,-3.24
2019-02-24T02:35:13.940Z,-3.26
2019-02-24T02:36:46.257Z,-3.26
2019-02-24T02:38:18.139Z,-3.28
2019-02-24T02:39:49.486Z,-3.24
2019-02-24T02:41:21.392Z,-3.23
2019-02-24T02:42:53.727Z,-3.20
2019-02-24T02:44:25.591Z,-3.21
2019-02-24T02:45:57.536Z,-3.21
2019-02-24T02:47:28.826Z,-3.23
2019-02-24T02:49:00.673Z,-3.27
2019-02-24T02:50:31.982Z,-3.27
2019-02-24T02:52:03.683Z,-3.26
2019-02-24T02:53:35.602Z,-3.28
2019-02-24T02:55:07.485Z,-3.33
2019-02-24T02:56:38.801Z,-3.36
2019-02-24T02:58:10.594Z,-3.36
2019-02-24T02:59:41.957Z,-3.35
2019-02-24T03:01:13.887Z,-3.28
2019-02-24T03:02:45.739Z,-3.27
2019-02-24T03:04:17.354Z,-3.32
2019-02-24T03:05:49.298Z,-3.33
2019-02-24T03:07:21.512Z,-3.37
2019-02-24T03:08:52.798Z,-3.67
2019-02-24T03:10:24.090Z,-3.73
2019-02-24T03:11:56.033Z,-3.87
2019-02-24T03:13:27.578Z,-3.84
2019-02-24T03:14:59.439Z,-3.76
2019-02-24T03:16:30.756Z,-3.73
2019-02-24T03:18:02.130Z,-3.66
2019-02-24T03:19:33.685Z,-3.62
2019-02-24T03:21:05.582Z,-3.55
2019-02-24T03:22:37.334Z,-3.50
2019-02-24T03:24:09.187Z,-3.50
2019-02-24T03:25:41.074Z,-3.49
2019-02-24T03:27:13.006Z,-3.51
2019-02-24T03:28:45.236Z,-3.47
2019-02-24T03:30:17.153Z,-3.42
2019-02-24T03:31:48.453Z,-3.45
2019-02-24T03:33:19.785Z,-3.48
2019-02-24T03:34:51.393Z,-3.48
2019-02-24T03:36:23.249Z,-3.48
2019-02-24T03:37:55.646Z,-3.50
2019-02-24T03:39:26.999Z,-3.50
2019-02-24T03:40:58.884Z,-3.46
2019-02-24T03:42:30.756Z,-3.45
2019-02-24T03:44:03.094Z,-3.50
2019-02-24T03:45:34.998Z,-3.56
2019-02-24T03:47:06.890Z,-3.61
2019-02-24T03:48:38.782Z,-3.65
2019-02-24T03:50:10.585Z,-3.65
2019-02-24T03:51:42.450Z,-3.67
2019-02-24T03:53:13.801Z,-3.59
2019-02-24T03:54:45.688Z,-3.60
2019-02-24T03:56:17.428Z,-3.62
2019-02-24T03:57:48.738Z,-3.61
2019-02-24T03:59:20.071Z,-3.63
2019-02-24T04:00:51.420Z,-3.62
2019-02-24T04:02:23.821Z,-3.61
2019-02-24T04:03:55.093Z,-3.60
2019-02-24T04:05:27.058Z,-3.68
2019-02-24T04:06:58.903Z,-3.70
2019-02-24T04:08:30.451Z,-3.67
2019-02-24T04:10:01.788Z,-3.65
2019-02-24T04:11:33.697Z,-3.67
2019-02-24T04:13:05.575Z,-3.73
2019-02-24T04:14:37.295Z,-3.78
2019-02-24T04:16:08.595Z,-3.74
2019-02-24T04:17:39.910Z,-3.72
2019-02-24T04:19:11.807Z,-3.70
2019-02-24T04:20:43.291Z,-3.68
2019-02-24T04:22:14.598Z,-3.67
2019-02-24T04:23:46.822Z,-3.61
2019-02-24T04:25:18.733Z,-3.62
2019-02-24T04:26:50.087Z,-3.61
2019-02-24T04:28:24.123Z,-3.61
2019-02-24T04:29:56.372Z,-3.63
2019-02-24T04:31:27.658Z,-3.65
2019-02-24T04:32:59.026Z,-3.69
2019-02-24T04:34:30.357Z,-3.72
2019-02-24T04:36:01.956Z,-3.74
2019-02-24T04:37:33.254Z,-3.73
2019-02-24T04:39:05.039Z,-3.70
2019-02-24T04:40:36.306Z,-3.69
2019-02-24T04:42:07.594Z,-3.70
2019-02-24T04:43:38.997Z,-3.68
2019-02-24T04:45:11.159Z,-3.72
2019-02-24T04:46:43.068Z,-3.73
2019-02-24T04:48:14.372Z,-3.73
2019-02-24T04:49:46.257Z,-3.71
2019-02-24T04:51:18.515Z,-3.67
2019-02-24T04:52:50.378Z,-3.63
2019-02-24T04:54:22.555Z,-3.58
2019-02-24T04:55:53.886Z,-3.57
2019-02-24T04:57:25.240Z,-3.63
2019-02-24T04:58:56.542Z,-3.75
2019-02-24T05:00:28.204Z,-3.93
2019-02-24T05:01:59.490Z,-4.03
2019-02-24T05:03:31.423Z,-3.93
2019-02-24T05:05:02.739Z,-3.83
2019-02-24T05:06:34.320Z,-3.86
2019-02-24T05:08:05.611Z,-3.83
2019-02-24T05:09:37.283Z,-3.81
2019-02-24T05:11:08.615Z,-3.77
2019-02-24T05:12:39.923Z,-3.67
2019-02-24T05:14:11.801Z,-3.62
2019-02-24T05:15:43.333Z,-3.65
2019-02-24T05:17:14.647Z,-3.69
2019-02-24T05:18:45.923Z,-3.82
2019-02-24T05:20:17.839Z,-3.89
2019-02-24T05:21:49.561Z,-3.82
2019-02-24T05:23:20.836Z,-3.80
2019-02-24T05:24:52.139Z,-3.80
2019-02-24T05:26:24.078Z,-3.80
2019-02-24T05:27:55.683Z,-3.76
2019-02-24T05:29:27.580Z,-3.77
2019-02-24T05:30:58.958Z,-3.75
2019-02-24T05:32:30.252Z,-3.75
2019-02-24T05:34:01.821Z,-3.77
2019-02-24T05:35:33.135Z,-3.74
2019-02-24T05:37:04.467Z,-3.73
2019-02-24T05:38:35.755Z,-3.74
2019-02-24T05:40:07.278Z,-3.73
2019-02-24T05:41:38.569Z,-3.71
2019-02-24T05:43:09.878Z,-3.65
2019-02-24T05:44:41.204Z,-3.63
2019-02-24T05:46:12.631Z,-3.64
2019-02-24T05:47:43.989Z,-3.70
2019-02-24T05:49:15.285Z,-3.81
2019-02-24T05:50:46.619Z,-3.86
2019-02-24T05:52:18.139Z,-3.86
2019-02-24T05:53:49.497Z,-3.88
2019-02-24T05:55:20.998Z,-3.85
2019-02-24T05:56:52.340Z,-3.84
2019-02-24T05:58:23.642Z,-3.78
2019-02-24T05:59:55.568Z,-3.80
2019-02-24T06:01:27.244Z,-3.76
2019-02-24T06:02:58.593Z,-3.69
2019-02-24T06:04:29.943Z,-3.67
2019-02-24T06:06:01.249Z,-3.63
2019-02-24T06:07:33.434Z,-3.65
2019-02-24T06:09:04.755Z,-3.68
2019-02-24T06:10:36.538Z,-3.68
2019-02-24T06:12:08.470Z,-3.67
2019-02-24T06:13:40.345Z,-3.62
2019-02-24T06:15:11.639Z,-3.58
2019-02-24T06:16:44.883Z,-3.54
2019-02-24T06:18:16.237Z,-3.57
2019-02-24T06:19:47.549Z,-3.55
2019-02-24T06:21:18.856Z,-3.45
2019-02-24T06:22:51.265Z,-3.41
2019-02-24T06:24:22.563Z,-3.40
2019-02-24T06:25:54.294Z,-3.30
2019-02-24T06:27:25.589Z,-3.19
2019-02-24T06:28:56.917Z,-3.07
2019-02-24T06:30:28.215Z,-2.99
2019-02-24T06:31:59.719Z,-2.88
2019-02-24T06:33:31.013Z,-2.78
2019-02-24T06:35:02.341Z,-2.71
2019-02-24T06:36:33.631Z,-2.66
2019-02-24T06:38:05.301Z,-2.58
2019-02-24T06:39:36.593Z,-2.50
2019-02-24T06:41:08.308Z,-2.39
2019-02-24T06:42:39.629Z,-2.26
2019-02-24T06:44:10.921Z,-2.15
2019-02-24T06:45:42.808Z,-2.15
2019-02-24T06:47:15.090Z,-2.07
2019-02-24T06:48:46.373Z,-1.99
2019-02-24T06:50:18.257Z,-1.99
2019-02-24T06:51:49.549Z,-1.98
2019-02-24T06:53:21.748Z,-1.97
2019-02-24T06:54:53.626Z,-1.96
2019-02-24T06:56:24.940Z,-1.94
2019-02-24T06:57:56.260Z,-1.96
2019-02-24T06:59:28.068Z,-1.97
2019-02-24T07:00:59.962Z,-2.06
2019-02-24T07:02:33.185Z,-2.13
2019-02-24T07:04:05.039Z,-2.15
2019-02-24T07:05:36.615Z,-2.14
2019-02-24T07:07:08.504Z,-2.15
2019-02-24T07:08:40.438Z,-2.14
2019-02-24T07:10:11.741Z,-2.14
2019-02-24T07:11:43.363Z,-2.09
2019-02-24T07:13:15.324Z,-1.91
2019-02-24T07:14:46.598Z,-1.82
2019-02-24T07:16:18.471Z,-1.72
2019-02-24T07:17:50.025Z,-1.85
2019-02-24T07:19:21.936Z,-1.81
2019-02-24T07:20:53.227Z,-1.78
2019-02-24T07:22:25.138Z,-1.75
2019-02-24T07:23:56.836Z,-1.67
2019-02-24T07:25:28.177Z,-1.63
2019-02-24T07:27:00.350Z,-1.63
2019-02-24T07:28:31.641Z,-1.55
2019-02-24T07:30:03.507Z,-1.35
2019-02-24T07:31:35.458Z,-1.14
2019-02-24T07:33:07.805Z,-0.99
2019-02-24T07:34:39.126Z,-0.94
2019-02-24T07:36:11.059Z,-0.84
2019-02-24T07:37:42.972Z,-0.86
2019-02-24T07:39:14.440Z,-0.78
2019-02-24T07:40:46.337Z,-0.88
2019-02-24T07:42:18.457Z,-0.82
2019-02-24T07:43:49.766Z,-0.87
2019-02-24T07:45:21.671Z,-1.21
2019-02-24T07:46:52.958Z,-1.32
2019-02-24T07:48:24.396Z,-1.07
2019-02-24T07:49:55.818Z,-0.78
2019-02-24T07:51:27.749Z,-0.48
2019-02-24T07:52:59.613Z,-0.18
2019-02-24T07:54:31.364Z,0.04
2019-02-24T07:56:02.684Z,0.29
2019-02-24T07:57:34.536Z,0.46
2019-02-24T07:59:05.832Z,0.59
2019-02-24T08:00:38.433Z,0.69
2019-02-24T08:02:09.711Z,0.76
2019-02-24T08:03:41.613Z,0.72
2019-02-24T08:05:13.509Z,0.79
2019-02-24T08:06:45.825Z,0.81
2019-02-24T08:08:17.721Z,0.83
2019-02-24T08:09:49.586Z,0.88
2019-02-24T08:11:21.479Z,0.82
2019-02-24T08:12:53.635Z,0.97
2019-02-24T08:14:25.522Z,0.96
2019-02-24T08:15:57.422Z,0.85
2019-02-24T08:17:29.322Z,0.82
2019-02-24T08:19:01.461Z,0.90
2019-02-24T08:20:33.505Z,0.97
2019-02-24T08:22:05.406Z,1.07
2019-02-24T08:23:37.283Z,1.13
2019-02-24T08:25:09.337Z,1.28
2019-02-24T08:26:41.307Z,1.49
2019-02-24T08:28:13.203Z,1.54
2019-02-24T08:29:45.079Z,1.55
2019-02-24T08:31:17.258Z,1.23
2019-02-24T08:32:49.194Z,1.27
2019-02-24T08:34:21.071Z,1.20
2019-02-24T08:35:52.973Z,1.06
2019-02-24T08:37:25.035Z,1.25
2019-02-24T08:38:56.963Z,1.56
2019-02-24T08:40:28.839Z,1.57
2019-02-24T08:42:00.767Z,1.44
2019-02-24T08:43:32.899Z,1.74
2019-02-24T08:45:04.825Z,1.45
2019-02-24T08:46:36.757Z,1.64
2019-02-24T08:48:08.698Z,1.82
2019-02-24T08:49:40.743Z,1.79
2019-02-24T08:51:12.660Z,1.54
2019-02-24T08:52:44.565Z,1.53
2019-02-24T08:54:16.465Z,1.59
2019-02-24T08:55:48.477Z,1.70
2019-02-24T08:57:20.413Z,1.57
2019-02-24T08:58:52.566Z,1.01
2019-02-24T09:00:24.426Z,1.01
2019-02-24T09:01:56.367Z,0.88
2019-02-24T09:03:27.659Z,0.80
2019-02-24T09:04:59.901Z,0.80
2019-02-24T09:06:31.278Z,0.91
2019-02-24T09:08:03.197Z,0.68
2019-02-24T09:09:35.130Z,0.79
2019-02-24T09:11:07.330Z,0.73
2019-02-24T09:12:39.223Z,0.94
2019-02-24T09:14:10.997Z,0.54
2019-02-24T09:15:42.957Z,0.49
2019-02-24T09:17:14.832Z,0.57
2019-02-24T09:18:46.727Z,0.63
2019-02-24T09:20:19.076Z,0.50
2019-02-24T09:21:50.996Z,0.24
2019-02-24T09:23:22.900Z,0.34
2019-02-24T09:24:54.236Z,0.34
2019-02-24T09:26:26.339Z,0.32
2019-02-24T09:27:58.223Z,0.27
2019-02-24T09:29:30.590Z,0.33
2019-02-24T09:31:02.497Z,0.30
2019-02-24T09:32:34.440Z,0.11
2019-02-24T09:34:06.378Z,-0.08
2019-02-24T09:35:38.538Z,-0.10
2019-02-24T09:37:10.420Z,-0.06
2019-02-24T09:38:42.379Z,0.02
2019-02-24T09:40:14.247Z,0.13
2019-02-24T09:41:46.403Z,0.09
2019-02-24T09:43:18.350Z,0.12
2019-02-24T09:44:51.993Z,0.15
2019-02-24T09:46:23.884Z,0.16
2019-02-24T09:47:55.750Z,0.10
2019-02-24T09:49:27.690Z,0.24
2019-02-24T09:51:00.092Z,0.34
2019-02-24T09:52:31.968Z,0.29
2019-02-24T09:54:03.850Z,0.22
2019-02-24T09:55:35.778Z,0.16
2019-02-24T09:57:07.810Z,0.06
2019-02-24T09:58:39.687Z,0.11
2019-02-24T10:00:11.903Z,0.09
2019-02-24T10:01:43.259Z,0.25
2019-02-24T10:03:15.178Z,0.47
2019-02-24T10:04:47.072Z,0.75
2019-02-24T10:06:19.396Z,0.84
2019-02-24T10:07:51.320Z,0.96
2019-02-24T10:09:23.220Z,1.15
2019-02-24T10:10:55.127Z,1.30
2019-02-24T10:12:27.304Z,1.33
2019-02-24T10:14:01.126Z,1.43
2019-02-24T10:15:33.045Z,1.46
2019-02-24T10:17:04.923Z,1.36
2019-02-24T10:18:37.265Z,1.16
2019-02-24T10:20:09.173Z,0.94
2019-02-24T10:21:41.114Z,0.78
2019-02-24T10:23:13.014Z,0.72
2019-02-24T10:24:45.163Z,0.63
2019-02-24T10:26:17.090Z,0.33
2019-02-24T10:27:48.999Z,0.11
2019-02-24T10:29:20.882Z,0.11
2019-02-24T10:30:52.406Z,0.04
2019-02-24T10:32:23.739Z,0.07
2019-02-24T10:33:55.634Z,0.04
2019-02-24T10:35:27.285Z,0.07
2019-02-24T10:36:59.624Z,-0.02
2019-02-24T10:38:31.539Z,-0.21
2019-02-24T10:40:03.448Z,-0.02
2019-02-24T10:41:35.307Z,-0.11
2019-02-24T10:43:10.248Z,-0.17
2019-02-24T10:44:41.601Z,-0.13
2019-02-24T10:46:13.950Z,-0.01
2019-02-24T10:47:45.227Z,0.12
2019-02-24T10:49:16.533Z,0.13
2019-02-24T10:50:47.831Z,0.17
2019-02-24T10:52:19.962Z,0.23
2019-02-24T10:53:51.863Z,0.39
2019-02-24T10:55:23.731Z,0.27
2019-02-24T10:56:55.664Z,0.45
2019-02-24T10:58:34.490Z,0.70
2019-02-24T11:00:00.757Z,0.92
2019-02-24T11:01:33.051Z,0.97
2019-02-24T11:03:04.987Z,1.17
2019-02-24T11:04:36.872Z,1.33
2019-02-24T11:06:08.741Z,1.48
2019-02-24T11:07:40.763Z,1.52
2019-02-24T11:09:12.667Z,1.49
2019-02-24T11:10:47.307Z,1.53
2019-02-24T11:12:19.197Z,1.42
2019-02-24T11:13:51.305Z,1.38
2019-02-24T11:15:23.224Z,1.22
2019-02-24T11:16:55.407Z,0.91
2019-02-24T11:18:26.736Z,0.84
2019-02-24T11:19:58.650Z,0.81
2019-02-24T11:21:30.535Z,0.74
2019-02-24T11:23:02.934Z,0.70
2019-02-24T11:24:34.846Z,0.77
2019-02-24T11:26:06.686Z,0.79
2019-02-24T11:27:38.621Z,0.84
2019-02-24T11:29:10.865Z,0.69
2019-02-24T11:30:42.755Z,0.79
2019-02-24T11:32:14.634Z,0.80
2019-02-24T11:33:46.531Z,0.97
2019-02-24T11:35:18.718Z,1.00
2019-02-24T11:36:50.648Z,1.02
2019-02-24T11:38:22.538Z,1.11
2019-02-24T11:39:54.443Z,1.22
2019-02-24T11:41:25.949Z,1.30
2019-02-24T11:42:58.683Z,1.19
2019-02-24T11:44:30.888Z,0.95
2019-02-24T11:46:02.800Z,0.80
2019-02-24T11:47:34.841Z,0.63
2019-02-24T11:49:06.744Z,0.51
2019-02-24T11:50:38.644Z,0.47
2019-02-24T11:52:10.527Z,0.63
2019-02-24T11:53:42.688Z,0.58
2019-02-24T11:55:14.611Z,0.60
2019-02-24T11:56:46.490Z,0.63
2019-02-24T11:58:18.389Z,0.57
2019-02-24T11:59:51.513Z,0.64
2019-02-24T12:01:23.400Z,0.82
2019-02-24T12:02:55.281Z,0.98
2019-02-24T12:04:27.140Z,1.12
2019-02-24T12:05:59.172Z,1.21
2019-02-24T12:07:31.093Z,1.34
2019-02-24T12:09:05.400Z,1.22
2019-02-24T12:10:37.462Z,1.15
2019-02-24T12:12:09.760Z,1.08
2019-02-24T12:13:41.634Z,0.92
2019-02-24T12:15:13.523Z,0.81
2019-02-24T12:16:45.484Z,0.67
2019-02-24T12:18:17.535Z,0.66
2019-02-24T12:19:49.425Z,0.83
2019-02-24T12:21:21.401Z,0.92
2019-02-24T12:22:53.312Z,0.84
2019-02-24T12:24:25.688Z,0.81
2019-02-24T12:25:57.593Z,0.89
2019-02-24T12:27:29.486Z,0.63
2019-02-24T12:29:00.832Z,0.51
2019-02-24T12:30:32.937Z,0.47
2019-02-24T12:32:06.149Z,0.37
2019-02-24T12:33:38.626Z,0.49
2019-02-24T12:35:10.539Z,0.57
2019-02-24T12:36:42.442Z,0.56
2019-02-24T12:38:14.369Z,0.56
2019-02-24T12:39:46.488Z,0.47
2019-02-24T12:41:18.381Z,0.25
2019-02-24T12:42:50.282Z,0.57
2019-02-24T12:44:22.222Z,0.65
2019-02-24T12:45:54.447Z,0.59
2019-02-24T12:47:26.341Z,0.46
2019-02-24T12:48:58.594Z,0.42
2019-02-24T12:50:30.521Z,0.44
2019-02-24T12:52:02.396Z,0.48
2019-02-24T12:53:34.287Z,0.51
2019-02-24T12:55:06.696Z,0.50
2019-02-24T12:56:38.016Z,0.51
2019-02-24T12:58:09.954Z,0.40
2019-02-24T12:59:41.874Z,0.39
2019-02-24T13:01:13.984Z,0.47
2019-02-24T13:02:45.917Z,0.48
2019-02-24T13:04:18.014Z,0.49
2019-02-24T13:05:49.883Z,0.45
2019-02-24T13:07:21.205Z,0.50
2019-02-24T13:08:53.209Z,0.26
2019-02-24T13:10:24.903Z,0.31
2019-02-24T13:11:56.785Z,0.37
2019-02-24T13:13:28.092Z,0.38
2019-02-24T13:14:59.447Z,0.40
2019-02-24T13:16:31.219Z,0.53
2019-02-24T13:18:02.535Z,0.65
2019-02-24T13:19:33.994Z,0.78
2019-02-24T13:21:05.412Z,0.79
2019-02-24T13:22:36.729Z,0.63
2019-02-24T13:24:08.641Z,0.75
2019-02-24T13:25:40.144Z,0.82
2019-02-24T13:27:13.182Z,0.62
2019-02-24T13:28:50.505Z,0.67
2019-02-24T13:30:17.443Z,0.78
2019-02-24T13:31:48.923Z,0.82
2019-02-24T13:33:20.865Z,0.93
2019-02-24T13:34:52.336Z,0.64
2019-02-24T13:36:23.636Z,0.63
2019-02-24T13:37:54.984Z,0.69
2019-02-24T13:39:26.315Z,0.66
2019-02-24T13:40:58.534Z,0.75
2019-02-24T13:42:30.433Z,0.78
2019-02-24T13:44:02.377Z,0.72
2019-02-24T13:45:34.267Z,0.73
2019-02-24T13:47:06.414Z,0.79
2019-02-24T13:48:38.333Z,0.98
2019-02-24T13:50:10.419Z,1.01
2019-02-24T13:51:42.327Z,0.96
2019-02-24T13:53:14.214Z,0.91
2019-02-24T13:54:45.512Z,0.91
2019-02-24T13:56:17.738Z,1.00
2019-02-24T13:57:49.699Z,0.96
2019-02-24T13:59:23.729Z,0.91
2019-02-24T14:00:55.546Z,0.98
2019-02-24T14:02:27.617Z,1.11
2019-02-24T14:03:59.536Z,1.03
2019-02-24T14:05:31.875Z,1.14
2019-02-24T14:07:03.226Z,1.27
2019-02-24T14:08:34.605Z,1.27
2019-02-24T14:10:06.498Z,1.16
2019-02-24T14:11:37.998Z,1.26
2019-02-24T14:13:09.948Z,1.25
2019-02-24T14:14:48.879Z,1.22
2019-02-24T14:16:15.419Z,1.19
2019-02-24T14:17:47.792Z,1.24
2019-02-24T14:19:19.683Z,1.28
2019-02-24T14:20:51.215Z,1.12
2019-02-24T14:22:22.546Z,1.08
2019-02-24T14:23:54.423Z,0.81
2019-02-24T14:25:26.353Z,0.79
2019-02-24T14:26:58.594Z,0.94
2019-02-24T14:28:30.461Z,1.01
2019-02-24T14:30:02.367Z,0.99
2019-02-24T14:31:33.749Z,0.97
2019-02-24T14:33:05.968Z,0.99
2019-02-24T14:34:38.859Z,0.89
2019-02-24T14:36:10.664Z,0.81
2019-02-24T14:37:42.639Z,0.88
2019-02-24T14:39:14.534Z,0.94
2019-02-24T14:40:45.881Z,0.82
2019-02-24T14:42:17.949Z,0.78
2019-02-24T14:43:49.892Z,0.82
2019-02-24T14:45:21.217Z,0.78
2019-02-24T14:46:53.135Z,0.64
2019-02-24T14:48:25.347Z,0.61
2019-02-24T14:49:57.357Z,0.56
2019-02-24T14:51:29.432Z,0.38
2019-02-24T14:53:00.715Z,0.39
2019-02-24T14:54:32.011Z,0.35
2019-02-24T14:56:03.365Z,0.46
2019-02-24T14:57:35.586Z,0.47
2019-02-24T14:59:07.511Z,0.50
2019-02-24T15:00:39.484Z,0.46
2019-02-24T15:02:11.391Z,0.45
2019-02-24T15:03:43.620Z,0.46
2019-02-24T15:05:16.707Z,0.49
2019-02-24T15:06:49.319Z,0.49
2019-02-24T15:08:21.207Z,0.47
2019-02-24T15:09:53.165Z,0.53
2019-02-24T15:11:25.088Z,0.54
2019-02-24T15:12:57.163Z,0.54
2019-02-24T15:14:29.066Z,0.46
2019-02-24T15:16:00.952Z,0.43
2019-02-24T15:17:32.897Z,0.54
2019-02-24T15:19:04.874Z,0.60
2019-02-24T15:20:36.180Z,0.63
2019-02-24T15:22:08.202Z,0.64
2019-02-24T15:23:40.175Z,0.65
2019-02-24T15:25:12.061Z,0.71
2019-02-24T15:26:43.946Z,0.57
2019-02-24T15:28:15.497Z,0.51
2019-02-24T15:29:47.413Z,0.45
2019-02-24T15:31:19.290Z,0.36
2019-02-24T15:32:52.117Z,0.34
2019-02-24T15:34:24.205Z,0.28
2019-02-24T15:35:56.145Z,0.28
2019-02-24T15:37:28.090Z,0.21
2019-02-24T15:39:02.124Z,0.13
2019-02-24T15:40:34.844Z,0.08
2019-02-24T15:42:06.766Z,-0.03
2019-02-24T15:43:38.673Z,-0.09
2019-02-24T15:45:10.550Z,-0.11
2019-02-24T15:46:43.759Z,-0.10
2019-02-24T15:48:15.707Z,-0.18
2019-02-24T15:49:47.669Z,-0.09
2019-02-24T15:51:19.807Z,-0.13
2019-02-24T15:52:51.864Z,-0.16
2019-02-24T15:54:23.747Z,-0.14
2019-02-24T15:55:55.690Z,-0.16
2019-02-24T15:57:27.021Z,-0.18
2019-02-24T15:58:58.715Z,-0.20
2019-02-24T16:00:30.041Z,-0.18
2019-02-24T16:02:02.325Z,-0.20
2019-02-24T16:03:33.638Z,-0.27
2019-02-24T16:05:05.074Z,-0.27
2019-02-24T16:06:37.475Z,-0.29
2019-02-24T16:08:09.551Z,-0.20
2019-02-24T16:09:41.483Z,-0.21
2019-02-24T16:11:12.944Z,-0.16
2019-02-24T16:12:44.886Z,-0.16
2019-02-24T16:14:16.778Z,-0.19
2019-02-24T16:15:48.722Z,-0.21
2019-02-24T16:17:20.913Z,-0.25
2019-02-24T16:18:52.848Z,-0.28
2019-02-24T16:21:27.844Z,-0.40
2019-02-24T16:23:02.408Z,-0.46
2019-02-24T16:24:36.710Z,-0.50
2019-02-24T16:26:10.342Z,-0.54
2019-02-24T16:27:44.133Z,-0.55
2019-02-24T16:29:18.658Z,-0.66
2019-02-24T16:30:52.896Z,-0.67
2019-02-24T16:32:26.524Z,-0.66
2019-02-24T16:34:00.912Z,-0.65
2019-02-24T16:35:35.355Z,-0.60
2019-02-24T16:37:09.605Z,-0.61
2019-02-24T16:38:43.914Z,-0.57
2019-02-24T16:40:23.087Z,-0.55
2019-02-24T16:41:57.712Z,-0.56
2019-02-24T16:43:32.010Z,-0.57
2019-02-24T16:45:09.044Z,-0.58
2019-02-24T16:46:43.333Z,-0.58
2019-02-24T16:48:17.222Z,-0.59
2019-02-24T16:49:51.520Z,-0.60
2019-02-24T16:51:25.246Z,-0.63
2019-02-24T16:52:59.017Z,-0.64
2019-02-24T16:54:34.764Z,-0.76
2019-02-24T16:56:08.484Z,-0.73
2019-02-24T16:57:44.275Z,-0.75
2019-02-24T16:59:18.581Z,-0.77
2019-02-24T17:00:52.758Z,-0.76
2019-02-24T17:02:29.558Z,-0.76
2019-02-24T17:04:06.152Z,-0.75
2019-02-24T17:05:41.856Z,-0.74
2019-02-24T17:07:15.913Z,-0.82
2019-02-24T17:09:01.247Z,-0.88
2019-02-24T17:10:32.664Z,-1.09
2019-02-24T17:12:06.964Z,-1.14
2019-02-24T17:13:41.452Z,-1.15
2019-02-24T17:15:15.188Z,-1.18
2019-02-24T17:16:49.450Z,-1.23
2019-02-24T17:18:23.146Z,-1.24
2019-02-24T17:19:57.049Z,-1.27
2019-02-24T17:21:31.365Z,-1.28
2019-02-24T17:23:07.256Z,-1.34
2019-02-24T17:24:41.972Z,-1.32
2019-02-24T17:26:15.930Z,-1.30
2019-02-24T17:27:51.498Z,-1.29
2019-02-24T17:29:25.228Z,-1.27
2019-02-24T17:30:58.974Z,-1.26
2019-02-24T17:32:32.977Z,-1.37
2019-02-24T17:34:07.232Z,-1.39
2019-02-24T17:35:40.877Z,-1.49
2019-02-24T17:37:20.081Z,-1.55
2019-02-24T17:38:52.296Z,-1.65
2019-02-24T17:40:27.026Z,-1.64
2019-02-24T17:42:00.687Z,-1.68
2019-02-24T17:43:34.485Z,-1.69
2019-02-24T17:45:10.920Z,-1.68
2019-02-24T17:46:45.211Z,-1.71
2019-02-24T17:48:20.111Z,-1.69
2019-02-24T17:49:54.417Z,-1.69
2019-02-24T17:51:28.382Z,-1.71
2019-02-24T17:53:02.730Z,-1.71
2019-02-24T17:54:36.991Z,-1.72
2019-02-24T17:56:11.228Z,-1.72
2019-02-24T17:57:45.216Z,-1.70
2019-02-24T17:59:19.049Z,-1.69
2019-02-24T18:00:57.114Z,-1.69
2019-02-24T18:02:30.811Z,-1.66
2019-02-24T18:04:05.258Z,-1.66
2019-02-24T18:05:39.581Z,-1.68
2019-02-24T18:07:13.809Z,-1.73
2019-02-24T18:08:47.640Z,-1.76
2019-02-24T18:10:21.764Z,-1.76
2019-02-24T18:11:55.606Z,-1.79
2019-02-24T18:13:29.677Z,-1.82
2019-02-24T18:15:03.475Z,-1.83
2019-02-24T18:16:38.274Z,-1.85
2019-02-24T18:18:12.028Z,-1.82
2019-02-24T18:19:45.754Z,-1.82
2019-02-24T18:21:20.067Z,-1.73
2019-02-24T18:22:53.986Z,-1.69
2019-02-24T18:24:27.685Z,-1.74
2019-02-24T18:26:01.925Z,-1.75
2019-02-24T18:27:36.247Z,-1.75
2019-02-24T18:29:10.923Z,-1.76
2019-02-24T18:30:44.709Z,-1.82
2019-02-24T18:32:18.433Z,-1.87
2019-02-24T18:33:52.134Z,-1.89
2019-02-24T18:35:25.946Z,-1.91
2019-02-24T18:36:59.588Z,-1.92
2019-02-24T18:38:33.880Z,-1.94
2019-02-24T18:40:16.204Z,-1.94
2019-02-24T18:41:50.146Z,-1.96
2019-02-24T18:43:23.887Z,-1.98
2019-02-24T18:44:58.299Z,-2.03
2019-02-24T18:46:32.094Z,-2.08
2019-02-24T18:48:06.363Z,-2.02
2019-02-24T18:49:40.138Z,-2.14
2019-02-24T18:51:14.446Z,-2.24
2019-02-24T18:52:48.743Z,-2.32
2019-02-24T18:54:23.467Z,-2.39
2019-02-24T18:55:57.757Z,-2.37
2019-02-24T18:57:32.047Z,-2.33
2019-02-24T18:59:05.847Z,-2.40
2019-02-24T19:00:40.422Z,-2.37
2019-02-24T19:02:14.304Z,-2.35
2019-02-24T19:03:57.017Z,-2.35
2019-02-24T19:05:23.324Z,-2.39
2019-02-24T19:06:57.461Z,-2.46
2019-02-24T19:08:32.669Z,-2.58
2019-02-24T19:10:17.503Z,-2.83
2019-02-24T19:11:54.642Z,-3.06
2019-02-24T19:13:28.990Z,-3.21
2019-02-24T19:15:02.727Z,-3.33
2019-02-24T19:16:36.458Z,-3.53
2019-02-24T19:18:10.844Z,-3.62
2019-02-24T19:19:44.746Z,-3.62
2019-02-24T19:21:19.053Z,-3.54
2019-02-24T19:22:52.720Z,-3.50
2019-02-24T19:24:26.388Z,-3.45
2019-02-24T19:26:00.543Z,-3.31
2019-02-24T19:27:34.279Z,-3.33
2019-02-24T19:29:09.044Z,-3.39
2019-02-24T19:30:43.447Z,-3.47
2019-02-24T19:32:17.605Z,-3.40
2019-02-24T19:33:51.356Z,-3.34
2019-02-24T19:35:25.029Z,-3.36
2019-02-24T19:36:59.566Z,-3.38
2019-02-24T19:38:33.507Z,-3.46
2019-02-24T19:40:12.864Z,-3.47
2019-02-24T19:41:47.125Z,-3.49
2019-02-24T19:43:20.775Z,-3.54
2019-02-24T19:44:56.039Z,-3.58
2019-02-24T19:46:30.040Z,-3.58
2019-02-24T19:48:03.707Z,-3.55
2019-02-24T19:49:38.047Z,-3.56
2019-02-24T19:51:11.920Z,-3.56
2019-02-24T19:52:45.629Z,-3.59
2019-02-24T19:54:19.345Z,-4.11
2019-02-24T19:55:53.635Z,-3.66
2019-02-24T19:57:28.206Z,-3.72
2019-02-24T19:59:01.855Z,-3.77
2019-02-24T20:00:36.964Z,-3.84
2019-02-24T20:02:10.754Z,-3.87
2019-02-24T20:03:44.516Z,-3.89
2019-02-24T20:05:18.864Z,-3.90